sensor_id;sensor_type;location;lat;lon;timestamp;pressure;altitude;pressure_sealevel;temperature;humidity
21433;BME280;18592;49.708;10.900;2022-09-09T00:00:19;98263.56;;;18.48;52.74
21433;BME280;18592;49.708;10.900;2022-09-09T00:02:27;98264.72;;;18.47;52.53
21433;BME280;18592;49.708;10.900;2022-09-09T00:04:35;98260.28;;;18.46;52.86
21433;BME280;18592;49.708;10.900;2022-09-09T00:06:46;98253.94;;;18.45;53.05
21433;BME280;18592;49.708;10.900;2022-09-09T00:09:08;98256.19;;;18.43;53.07
21433;BME280;18592;49.708;10.900;2022-09-09T00:11:13;98258.44;;;18.41;52.65
21433;BME280;18592;49.708;10.900;2022-09-09T00:13:46;98251.59;;;18.38;53.17
21433;BME280;18592;49.708;10.900;2022-09-09T00:18:31;98249.13;;;18.37;53.44
21433;BME280;18592;49.708;10.900;2022-09-09T00:21:04;98245.59;;;18.36;53.42
21433;BME280;18592;49.708;10.900;2022-09-09T00:23:14;98246.69;;;18.35;53.45
21433;BME280;18592;49.708;10.900;2022-09-09T00:25:29;98248.13;;;18.33;53.64
21433;BME280;18592;49.708;10.900;2022-09-09T00:27:47;98251.72;;;18.33;53.65
21433;BME280;18592;49.708;10.900;2022-09-09T00:29:56;98258.06;;;18.34;53.55
21433;BME280;18592;49.708;10.900;2022-09-09T00:32:04;98251.72;;;18.33;53.60
21433;BME280;18592;49.708;10.900;2022-09-09T00:34:21;98250.56;;;18.34;54.35
21433;BME280;18592;49.708;10.900;2022-09-09T00:36:26;98251.41;;;18.35;53.94
21433;BME280;18592;49.708;10.900;2022-09-09T00:38:35;98252.22;;;18.35;53.97
21433;BME280;18592;49.708;10.900;2022-09-09T00:40:50;98253.34;;;18.34;54.44
21433;BME280;18592;49.708;10.900;2022-09-09T00:45:19;98245.59;;;18.36;54.73
21433;BME280;18592;49.708;10.900;2022-09-09T00:47:40;98243.31;;;18.38;54.46
21433;BME280;18592;49.708;10.900;2022-09-09T00:50:05;98240.56;;;18.38;54.78
21433;BME280;18592;49.708;10.900;2022-09-09T00:52:30;98248.03;;;18.38;54.60
21433;BME280;18592;49.708;10.900;2022-09-09T00:57:22;98244.66;;;18.41;54.74
21433;BME280;18592;49.708;10.900;2022-09-09T00:59:59;98242.19;;;18.39;54.91
21433;BME280;18592;49.708;10.900;2022-09-09T01:02:27;98250.47;;;18.39;54.91
21433;BME280;18592;49.708;10.900;2022-09-09T01:04:35;98251.00;;;18.42;54.52
21433;BME280;18592;49.708;10.900;2022-09-09T01:06:38;98249.84;;;18.42;54.61
21433;BME280;18592;49.708;10.900;2022-09-09T01:10:56;98237.97;;;18.42;54.51
21433;BME280;18592;49.708;10.900;2022-09-09T01:13:05;98236.88;;;18.43;54.47
21433;BME280;18592;49.708;10.900;2022-09-09T01:15:22;98238.81;;;18.42;54.77
21433;BME280;18592;49.708;10.900;2022-09-09T01:17:31;98241.28;;;18.44;54.73
21433;BME280;18592;49.708;10.900;2022-09-09T01:19:49;98246.78;;;18.44;54.59
21433;BME280;18592;49.708;10.900;2022-09-09T01:22:06;98239.31;;;18.45;54.72
21433;BME280;18592;49.708;10.900;2022-09-09T01:26:48;98248.75;;;18.44;54.84
21433;BME280;18592;49.708;10.900;2022-09-09T01:28:58;98244.03;;;18.44;54.42
21433;BME280;18592;49.708;10.900;2022-09-09T01:31:15;98247.09;;;18.42;54.74
21433;BME280;18592;49.708;10.900;2022-09-09T01:33:20;98238.81;;;18.42;54.64
21433;BME280;18592;49.708;10.900;2022-09-09T01:37:35;98248.22;;;18.42;54.55
21433;BME280;18592;49.708;10.900;2022-09-09T01:39:41;98248.53;;;18.40;54.87
21433;BME280;18592;49.708;10.900;2022-09-09T01:41:47;98248.22;;;18.42;54.51
21433;BME280;18592;49.708;10.900;2022-09-09T01:43:53;98254.03;;;18.40;54.75
21433;BME280;18592;49.708;10.900;2022-09-09T01:46:00;98250.16;;;18.41;54.84
21433;BME280;18592;49.708;10.900;2022-09-09T01:48:03;98248.84;;;18.38;54.88
21433;BME280;18592;49.708;10.900;2022-09-09T01:50:17;98248.84;;;18.38;55.01
21433;BME280;18592;49.708;10.900;2022-09-09T01:52:20;98240.06;;;18.36;54.78
21433;BME280;18592;49.708;10.900;2022-09-09T01:54:23;98241.69;;;18.37;54.98
21433;BME280;18592;49.708;10.900;2022-09-09T02:00:41;98242.81;;;18.36;55.22
21433;BME280;18592;49.708;10.900;2022-09-09T02:05:16;98235.66;;;18.35;55.50
21433;BME280;18592;49.708;10.900;2022-09-09T02:07:40;98240.06;;;18.36;55.39
21433;BME280;18592;49.708;10.900;2022-09-09T02:10:01;98238.41;;;18.35;55.26
21433;BME280;18592;49.708;10.900;2022-09-09T02:12:13;98246.19;;;18.33;55.41
21433;BME280;18592;49.708;10.900;2022-09-09T02:14:25;98241.50;;;18.34;55.26
21433;BME280;18592;49.708;10.900;2022-09-09T02:16:44;98242.28;;;18.34;55.66
21433;BME280;18592;49.708;10.900;2022-09-09T02:19:12;98243.13;;;18.35;55.87
21433;BME280;18592;49.708;10.900;2022-09-09T02:21:30;98241.19;;;18.35;55.38
21433;BME280;18592;49.708;10.900;2022-09-09T02:23:34;98240.84;;;18.37;55.49
21433;BME280;18592;49.708;10.900;2022-09-09T02:25:41;98236.16;;;18.37;55.52
21433;BME280;18592;49.708;10.900;2022-09-09T02:27:56;98245.25;;;18.38;55.58
21433;BME280;18592;49.708;10.900;2022-09-09T02:30:01;98240.25;;;18.40;55.48
21433;BME280;18592;49.708;10.900;2022-09-09T02:32:19;98246.59;;;18.40;55.91
21433;BME280;18592;49.708;10.900;2022-09-09T02:34:23;98252.59;;;18.42;55.71
21433;BME280;18592;49.708;10.900;2022-09-09T02:36:29;98247.91;;;18.43;55.65
21433;BME280;18592;49.708;10.900;2022-09-09T02:38:35;98239.63;;;18.43;55.66
21433;BME280;18592;49.708;10.900;2022-09-09T02:40:43;98250.66;;;18.43;55.54
21433;BME280;18592;49.708;10.900;2022-09-09T02:42:49;98247.59;;;18.45;55.59
21433;BME280;18592;49.708;10.900;2022-09-09T02:44:52;98244.03;;;18.44;55.66
21433;BME280;18592;49.708;10.900;2022-09-09T02:49:36;98237.38;;;18.45;55.91
21433;BME280;18592;49.708;10.900;2022-09-09T02:55:58;98237.91;;;18.47;55.91
21433;BME280;18592;49.708;10.900;2022-09-09T02:58:04;98241.50;;;18.48;55.70
21433;BME280;18592;49.708;10.900;2022-09-09T03:00:11;98240.38;;;18.49;55.82
21433;BME280;18592;49.708;10.900;2022-09-09T03:02:19;98245.06;;;18.48;55.79
21433;BME280;18592;49.708;10.900;2022-09-09T03:04:26;98247.50;;;18.50;55.75
21433;BME280;18592;49.708;10.900;2022-09-09T03:06:28;98243.13;;;18.49;55.79
21433;BME280;18592;49.708;10.900;2022-09-09T03:08:39;98253.03;;;18.50;55.76
21433;BME280;18592;49.708;10.900;2022-09-09T03:10:42;98244.75;;;18.50;56.00
21433;BME280;18592;49.708;10.900;2022-09-09T03:12:49;98244.75;;;18.50;56.05
21433;BME280;18592;49.708;10.900;2022-09-09T03:14:53;98240.06;;;18.50;55.80
21433;BME280;18592;49.708;10.900;2022-09-09T03:16:58;98240.56;;;18.52;55.70
21433;BME280;18592;49.708;10.900;2022-09-09T03:19:05;98233.09;;;18.53;55.91
21433;BME280;18592;49.708;10.900;2022-09-09T03:21:07;98231.97;;;18.54;55.78
21433;BME280;18592;49.708;10.900;2022-09-09T03:23:14;98233.59;;;18.55;55.97
21433;BME280;18592;49.708;10.900;2022-09-09T03:25:17;98230.84;;;18.55;55.91
21433;BME280;18592;49.708;10.900;2022-09-09T03:27:20;98235.25;;;18.56;55.97
21433;BME280;18592;49.708;10.900;2022-09-09T03:29:21;98232.47;;;18.56;55.84
21433;BME280;18592;49.708;10.900;2022-09-09T03:31:29;98235.75;;;18.58;55.99
21433;BME280;18592;49.708;10.900;2022-09-09T03:33:32;98231.88;;;18.59;55.87
21433;BME280;18592;49.708;10.900;2022-09-09T03:35:39;98226.03;;;18.60;55.96
21433;BME280;18592;49.708;10.900;2022-09-09T03:37:48;98223.25;;;18.60;55.89
21433;BME280;18592;49.708;10.900;2022-09-09T03:39:50;98222.13;;;18.61;55.93
21433;BME280;18592;49.708;10.900;2022-09-09T03:41:54;98220.22;;;18.62;55.89
21433;BME280;18592;49.708;10.900;2022-09-09T03:43:56;98219.06;;;18.63;55.95
21433;BME280;18592;49.708;10.900;2022-09-09T03:45:59;98223.47;;;18.64;55.99
21433;BME280;18592;49.708;10.900;2022-09-09T03:48:03;98220.69;;;18.64;55.85
21433;BME280;18592;49.708;10.900;2022-09-09T03:50:08;98221.53;;;18.64;55.98
21433;BME280;18592;49.708;10.900;2022-09-09T03:52:15;98231.41;;;18.65;55.66
21433;BME280;18592;49.708;10.900;2022-09-09T03:54:24;98221.19;;;18.66;56.03
21433;BME280;18592;49.708;10.900;2022-09-09T03:56:26;98217.31;;;18.67;55.90
21433;BME280;18592;49.708;10.900;2022-09-09T03:58:29;98217.31;;;18.67;56.00
21433;BME280;18592;49.708;10.900;2022-09-09T04:00:38;98220.88;;;18.67;56.09
21433;BME280;18592;49.708;10.900;2022-09-09T04:02:44;98207.91;;;18.68;56.11
21433;BME280;18592;49.708;10.900;2022-09-09T04:04:49;98217.50;;;18.70;56.01
21433;BME280;18592;49.708;10.900;2022-09-09T04:06:51;98216.69;;;18.70;56.42
21433;BME280;18592;49.708;10.900;2022-09-09T04:08:53;98209.22;;;18.70;56.04
21433;BME280;18592;49.708;10.900;2022-09-09T04:10:57;98211.16;;;18.70;55.91
21433;BME280;18592;49.708;10.900;2022-09-09T04:13:01;98218.31;;;18.71;55.93
21433;BME280;18592;49.708;10.900;2022-09-09T04:15:03;98218.31;;;18.71;56.06
21433;BME280;18592;49.708;10.900;2022-09-09T04:17:06;98211.69;;;18.72;56.10
21433;BME280;18592;49.708;10.900;2022-09-09T04:19:08;98222.41;;;18.73;56.04
21433;BME280;18592;49.708;10.900;2022-09-09T04:21:10;98223.22;;;18.74;56.04
21433;BME280;18592;49.708;10.900;2022-09-09T04:23:13;98230.69;;;18.73;56.07
21433;BME280;18592;49.708;10.900;2022-09-09T04:25:18;98225.50;;;18.72;56.02
21433;BME280;18592;49.708;10.900;2022-09-09T04:27:19;98232.34;;;18.74;56.03
21433;BME280;18592;49.708;10.900;2022-09-09T04:29:21;98226.00;;;18.74;55.80
21433;BME280;18592;49.708;10.900;2022-09-09T04:31:22;98224.84;;;18.75;55.92
21433;BME280;18592;49.708;10.900;2022-09-09T04:33:29;98218.81;;;18.73;55.91
21433;BME280;18592;49.708;10.900;2022-09-09T04:35:33;98222.91;;;18.75;55.88
21433;BME280;18592;49.708;10.900;2022-09-09T04:37:35;98218.53;;;18.74;55.89
21433;BME280;18592;49.708;10.900;2022-09-09T04:39:37;98219.31;;;18.75;55.68
21433;BME280;18592;49.708;10.900;2022-09-09T04:41:39;98222.59;;;18.77;55.76
21433;BME280;18592;49.708;10.900;2022-09-09T04:43:43;98225.38;;;18.77;55.92
21433;BME280;18592;49.708;10.900;2022-09-09T04:45:49;98219.03;;;18.76;55.51
21433;BME280;18592;49.708;10.900;2022-09-09T04:47:59;98228.13;;;18.77;55.84
21433;BME280;18592;49.708;10.900;2022-09-09T04:50:01;98233.66;;;18.77;55.98
21433;BME280;18592;49.708;10.900;2022-09-09T04:52:03;98234.44;;;18.77;55.94
21433;BME280;18592;49.708;10.900;2022-09-09T04:54:07;98228.91;;;18.77;55.80
21433;BME280;18592;49.708;10.900;2022-09-09T04:56:12;98228.13;;;18.77;55.84
21433;BME280;18592;49.708;10.900;2022-09-09T04:58:19;98234.44;;;18.77;55.90
21433;BME280;18592;49.708;10.900;2022-09-09T05:00:27;98233.66;;;18.77;55.92
21433;BME280;18592;49.708;10.900;2022-09-09T05:02:29;98240.28;;;18.76;55.75
21433;BME280;18592;49.708;10.900;2022-09-09T05:04:32;98252.97;;;18.77;55.84
21433;BME280;18592;49.708;10.900;2022-09-09T05:06:35;98252.97;;;18.77;55.74
21433;BME280;18592;49.708;10.900;2022-09-09T05:08:39;98253.78;;;18.77;55.75
21433;BME280;18592;49.708;10.900;2022-09-09T05:10:42;98247.47;;;18.77;55.85
21433;BME280;18592;49.708;10.900;2022-09-09T05:12:53;98260.44;;;18.76;55.94
21433;BME280;18592;49.708;10.900;2022-09-09T05:14:58;98261.28;;;18.77;55.82
21433;BME280;18592;49.708;10.900;2022-09-09T05:17:00;98260.13;;;18.78;55.98
21433;BME280;18592;49.708;10.900;2022-09-09T05:19:02;98264.03;;;18.77;55.79
21433;BME280;18592;49.708;10.900;2022-09-09T05:21:19;98267.59;;;18.77;55.87
21433;BME280;18592;49.708;10.900;2022-09-09T05:23:21;98266.78;;;18.77;55.99
21433;BME280;18592;49.708;10.900;2022-09-09T05:25:26;98265.97;;;18.76;55.74
21433;BME280;18592;49.708;10.900;2022-09-09T05:27:29;98262.06;;;18.77;56.13
21433;BME280;18592;49.708;10.900;2022-09-09T05:29:34;98267.28;;;18.79;55.92
21433;BME280;18592;49.708;10.900;2022-09-09T05:31:37;98268.41;;;18.78;55.98
21433;BME280;18592;49.708;10.900;2022-09-09T05:33:47;98268.91;;;18.80;56.08
21433;BME280;18592;49.708;10.900;2022-09-09T05:35:58;98266.16;;;18.80;56.16
21433;BME280;18592;49.708;10.900;2022-09-09T05:37:59;98263.38;;;18.80;56.19
21433;BME280;18592;49.708;10.900;2022-09-09T05:40:02;98267.47;;;18.82;56.15
21433;BME280;18592;49.708;10.900;2022-09-09T05:42:04;98266.34;;;18.83;56.28
21433;BME280;18592;49.708;10.900;2022-09-09T05:44:07;98274.31;;;18.85;56.09
21433;BME280;18592;49.708;10.900;2022-09-09T05:46:23;98277.41;;;18.83;56.47
21433;BME280;18592;49.708;10.900;2022-09-09T05:48:28;98272.09;;;18.87;56.38
21433;BME280;18592;49.708;10.900;2022-09-09T05:50:31;98273.69;;;18.88;56.40
21433;BME280;18592;49.708;10.900;2022-09-09T05:52:33;98280.88;;;18.89;56.52
21433;BME280;18592;49.708;10.900;2022-09-09T05:54:35;98286.06;;;18.90;56.38
21433;BME280;18592;49.708;10.900;2022-09-09T05:56:41;98285.78;;;18.92;56.54
21433;BME280;18592;49.708;10.900;2022-09-09T05:58:44;98285.44;;;18.93;56.33
21433;BME280;18592;49.708;10.900;2022-09-09T06:00:46;98282.38;;;18.95;56.43
21433;BME280;18592;49.708;10.900;2022-09-09T06:02:52;98282.38;;;18.95;56.48
21433;BME280;18592;49.708;10.900;2022-09-09T06:04:55;98279.31;;;18.96;56.26
21433;BME280;18592;49.708;10.900;2022-09-09T06:07:02;98281.75;;;18.98;56.43
21433;BME280;18592;49.708;10.900;2022-09-09T06:09:06;98275.94;;;18.99;56.67
21433;BME280;18592;49.708;10.900;2022-09-09T06:11:39;98279.47;;;19.00;56.72
21433;BME280;18592;49.708;10.900;2022-09-09T06:13:41;98281.13;;;19.01;56.40
21433;BME280;18592;49.708;10.900;2022-09-09T06:15:51;98281.63;;;19.03;56.73
21433;BME280;18592;49.708;10.900;2022-09-09T06:17:57;98275.47;;;19.06;56.27
21433;BME280;18592;49.708;10.900;2022-09-09T06:19:59;98277.91;;;19.08;56.59
21433;BME280;18592;49.708;10.900;2022-09-09T06:22:01;98279.56;;;19.09;56.60
21433;BME280;18592;49.708;10.900;2022-09-09T06:24:05;98281.72;;;19.12;56.24
21433;BME280;18592;49.708;10.900;2022-09-09T06:26:15;98277.50;;;19.14;56.52
21433;BME280;18592;49.708;10.900;2022-09-09T06:28:20;98268.88;;;19.16;56.50
21433;BME280;18592;49.708;10.900;2022-09-09T06:30:22;98270.19;;;19.18;56.34
21433;BME280;18592;49.708;10.900;2022-09-09T06:32:24;98275.94;;;19.22;56.39
21433;BME280;18592;49.708;10.900;2022-09-09T06:34:28;98268.13;;;19.24;56.28
21433;BME280;18592;49.708;10.900;2022-09-09T06:36:34;98263.94;;;19.26;56.39
21433;BME280;18592;49.708;10.900;2022-09-09T06:38:37;98267.38;;;19.32;56.39
21433;BME280;18592;49.708;10.900;2022-09-09T06:40:39;98270.66;;;19.34;56.43
21433;BME280;18592;49.708;10.900;2022-09-09T06:42:42;98276.41;;;19.37;56.28
21433;BME280;18592;49.708;10.900;2022-09-09T06:45:06;98270.25;;;19.40;55.93
21433;BME280;18592;49.708;10.900;2022-09-09T06:47:15;98278.72;;;19.44;55.93
21433;BME280;18592;49.708;10.900;2022-09-09T06:49:17;98276.16;;;19.47;56.07
21433;BME280;18592;49.708;10.900;2022-09-09T06:51:21;98281.84;;;19.51;55.92
21433;BME280;18592;49.708;10.900;2022-09-09T06:53:23;98282.03;;;19.54;55.85
21433;BME280;18592;49.708;10.900;2022-09-09T06:55:26;98281.09;;;19.59;55.72
21433;BME280;18592;49.708;10.900;2022-09-09T06:57:36;98289.56;;;19.62;55.75
21433;BME280;18592;49.708;10.900;2022-09-09T06:59:52;98289.75;;;19.66;56.17
21433;BME280;18592;49.708;10.900;2022-09-09T07:01:54;98286.06;;;19.71;56.02
21433;BME280;18592;49.708;10.900;2022-09-09T07:03:58;98294.22;;;19.76;55.69
21433;BME280;18592;49.708;10.900;2022-09-09T07:06:01;98294.06;;;19.81;55.65
21433;BME280;18592;49.708;10.900;2022-09-09T07:08:02;98297.00;;;19.84;55.71
21433;BME280;18592;49.708;10.900;2022-09-09T07:10:04;98292.50;;;19.88;55.70
21433;BME280;18592;49.708;10.900;2022-09-09T07:12:07;98290.72;;;19.92;55.63
21433;BME280;18592;49.708;10.900;2022-09-09T07:14:12;98295.78;;;19.99;55.32
21433;BME280;18592;49.708;10.900;2022-09-09T07:16:19;98298.09;;;20.05;55.54
21433;BME280;18592;49.708;10.900;2022-09-09T07:18:21;98304.81;;;20.13;55.63
21433;BME280;18592;49.708;10.900;2022-09-09T07:20:23;98300.09;;;20.22;55.53
21433;BME280;18592;49.708;10.900;2022-09-09T07:22:27;98303.44;;;20.33;55.35
21433;BME280;18592;49.708;10.900;2022-09-09T07:24:30;98295.66;;;20.43;55.44
21433;BME280;18592;49.708;10.900;2022-09-09T07:26:32;98302.84;;;20.53;55.04
21433;BME280;18592;49.708;10.900;2022-09-09T07:28:37;98295.38;;;20.62;55.24
21433;BME280;18592;49.708;10.900;2022-09-09T07:30:39;98292.63;;;20.70;55.14
21433;BME280;18592;49.708;10.900;2022-09-09T07:32:44;98287.94;;;20.79;55.08
21433;BME280;18592;49.708;10.900;2022-09-09T07:34:46;98289.88;;;20.87;54.82
21433;BME280;18592;49.708;10.900;2022-09-09T07:36:48;98294.63;;;20.96;54.60
21433;BME280;18592;49.708;10.900;2022-09-09T07:38:55;98291.56;;;21.06;54.32
21433;BME280;18592;49.708;10.900;2022-09-09T07:41:05;98295.47;;;21.13;54.22
21433;BME280;18592;49.708;10.900;2022-09-09T07:43:08;98301.03;;;21.22;54.37
21433;BME280;18592;49.708;10.900;2022-09-09T07:45:13;98297.09;;;21.31;54.00
21433;BME280;18592;49.708;10.900;2022-09-09T07:47:18;98294.31;;;21.40;53.83
21433;BME280;18592;49.708;10.900;2022-09-09T07:49:24;98296.75;;;21.50;54.04
21433;BME280;18592;49.708;10.900;2022-09-09T07:51:36;98295.25;;;21.61;53.92
21433;BME280;18592;49.708;10.900;2022-09-09T07:53:41;98295.72;;;21.72;53.38
21433;BME280;18592;49.708;10.900;2022-09-09T07:55:42;98292.94;;;21.80;53.61
21433;BME280;18592;49.708;10.900;2022-09-09T07:57:44;98287.53;;;21.92;53.51
21433;BME280;18592;49.708;10.900;2022-09-09T07:59:47;98300.72;;;22.04;53.29
21433;BME280;18592;49.708;10.900;2022-09-09T08:01:50;98290.06;;;22.14;53.29
21433;BME280;18592;49.708;10.900;2022-09-09T08:04:01;98289.69;;;22.25;52.70
21433;BME280;18592;49.708;10.900;2022-09-09T08:06:06;98296.84;;;22.34;52.70
21433;BME280;18592;49.708;10.900;2022-09-09T08:08:10;98297.28;;;22.45;52.76
21433;BME280;18592;49.708;10.900;2022-09-09T08:10:12;98294.59;;;22.57;52.74
21433;BME280;18592;49.708;10.900;2022-09-09T08:12:16;98308.63;;;22.69;52.65
21433;BME280;18592;49.708;10.900;2022-09-09T08:14:19;98293.19;;;22.80;52.21
21433;BME280;18592;49.708;10.900;2022-09-09T08:16:27;98304.88;;;22.94;52.34
21433;BME280;18592;49.708;10.900;2022-09-09T08:18:30;98300.19;;;23.07;51.96
21433;BME280;18592;49.708;10.900;2022-09-09T08:20:32;98307.13;;;23.21;51.82
21433;BME280;18592;49.708;10.900;2022-09-09T08:22:36;98306.53;;;23.36;51.75
21433;BME280;18592;49.708;10.900;2022-09-09T08:24:39;98300.69;;;23.50;51.54
21433;BME280;18592;49.708;10.900;2022-09-09T08:26:46;98291.34;;;23.67;51.33
21433;BME280;18592;49.708;10.900;2022-09-09T08:28:54;98301.97;;;23.85;51.57
21433;BME280;18592;49.708;10.900;2022-09-09T08:31:14;98301.41;;;24.04;51.26
21433;BME280;18592;49.708;10.900;2022-09-09T08:33:16;98303.31;;;24.24;51.02
21433;BME280;18592;49.708;10.900;2022-09-09T08:35:19;98301.59;;;24.44;50.91
21433;BME280;18592;49.708;10.900;2022-09-09T08:37:23;98301.84;;;24.63;50.35
21433;BME280;18592;49.708;10.900;2022-09-09T08:39:24;98308.00;;;24.81;50.10
21433;BME280;18592;49.708;10.900;2022-09-09T08:43:35;98310.75;;;25.17;49.76
21433;BME280;18592;49.708;10.900;2022-09-09T08:45:50;98308.81;;;25.33;49.12
21433;BME280;18592;49.708;10.900;2022-09-09T08:50:32;98314.13;;;25.62;48.08
21433;BME280;18592;49.708;10.900;2022-09-09T08:53:08;98306.56;;;25.78;48.45
21433;BME280;18592;49.708;10.900;2022-09-09T08:55:45;98301.41;;;25.93;48.10
21433;BME280;18592;49.708;10.900;2022-09-09T08:57:40;98297.38;;;26.06;47.68
21433;BME280;18592;49.708;10.900;2022-09-09T08:59:42;98296.03;;;26.15;47.57
21433;BME280;18592;49.708;10.900;2022-09-09T09:04:29;98300.19;;;26.37;47.58
21433;BME280;18592;49.708;10.900;2022-09-09T09:09:01;98305.88;;;26.56;46.65
21433;BME280;18592;49.708;10.900;2022-09-09T09:11:06;98298.47;;;26.64;46.83
21433;BME280;18592;49.708;10.900;2022-09-09T09:13:15;98296.94;;;26.66;45.33
21433;BME280;18592;49.708;10.900;2022-09-09T09:15:25;98300.19;;;26.68;45.33
21433;BME280;18592;49.708;10.900;2022-09-09T09:17:33;98292.22;;;26.70;45.43
21433;BME280;18592;49.708;10.900;2022-09-09T09:19:35;98292.41;;;26.77;45.70
21433;BME280;18592;49.708;10.900;2022-09-09T09:23:55;98294.91;;;26.98;46.03
21433;BME280;18592;49.708;10.900;2022-09-09T09:26:10;98296.03;;;27.13;45.88
21433;BME280;18592;49.708;10.900;2022-09-09T09:28:23;98296.81;;;27.29;46.03
21433;BME280;18592;49.708;10.900;2022-09-09T09:33:27;98289.03;;;27.57;45.36
21433;BME280;18592;49.708;10.900;2022-09-09T09:35:30;98288.88;;;27.69;45.59
21433;BME280;18592;49.708;10.900;2022-09-09T09:37:35;98292.25;;;27.78;44.84
21433;BME280;18592;49.708;10.900;2022-09-09T09:39:38;98286.78;;;27.85;44.54
21433;BME280;18592;49.708;10.900;2022-09-09T09:42:12;98278.09;;;27.90;44.28
21433;BME280;18592;49.708;10.900;2022-09-09T09:44:26;98277.31;;;27.93;44.02
21433;BME280;18592;49.708;10.900;2022-09-09T09:46:29;98280.59;;;27.95;43.54
21433;BME280;18592;49.708;10.900;2022-09-09T09:48:39;98275.75;;;27.96;43.32
21433;BME280;18592;49.708;10.900;2022-09-09T09:50:50;98270.53;;;27.94;43.17
21433;BME280;18592;49.708;10.900;2022-09-09T09:52:58;98273.34;;;27.94;43.03
21433;BME280;18592;49.708;10.900;2022-09-09T09:55:04;98267.31;;;27.92;42.82
21433;BME280;18592;49.708;10.900;2022-09-09T09:57:15;98264.06;;;27.90;42.61
21433;BME280;18592;49.708;10.900;2022-09-09T09:59:33;98273.56;;;27.86;41.89
21433;BME280;18592;49.708;10.900;2022-09-09T10:01:53;98265.53;;;27.84;42.22
21433;BME280;18592;49.708;10.900;2022-09-09T10:03:59;98265.13;;;27.82;42.17
21433;BME280;18592;49.708;10.900;2022-09-09T10:06:02;98266.72;;;27.83;42.02
21433;BME280;18592;49.708;10.900;2022-09-09T10:08:15;98256.72;;;27.82;41.51
21433;BME280;18592;49.708;10.900;2022-09-09T10:10:23;98261.19;;;27.87;41.53
21433;BME280;18592;49.708;10.900;2022-09-09T10:17:26;98256.59;;;27.98;41.30
21433;BME280;18592;49.708;10.900;2022-09-09T10:19:35;98253.53;;;28.03;41.25
21433;BME280;18592;49.708;10.900;2022-09-09T10:24:11;98248.97;;;28.17;42.14
21433;BME280;18592;49.708;10.900;2022-09-09T10:28:41;98255.00;;;28.42;41.92
21433;BME280;18592;49.708;10.900;2022-09-09T10:33:40;98253.09;;;28.72;41.99
21433;BME280;18592;49.708;10.900;2022-09-09T10:36:10;98243.75;;;28.91;41.95
21433;BME280;18592;49.708;10.900;2022-09-09T10:38:18;98226.78;;;29.10;42.12
21433;BME280;18592;49.708;10.900;2022-09-09T10:40:34;98225.03;;;29.28;42.03
21433;BME280;18592;49.708;10.900;2022-09-09T10:42:46;98229.28;;;29.48;42.15
21433;BME280;18592;49.708;10.900;2022-09-09T10:45:17;98223.03;;;29.62;40.18
21433;BME280;18592;49.708;10.900;2022-09-09T10:57:33;98229.03;;;29.61;38.11
21433;BME280;18592;49.708;10.900;2022-09-09T10:59:44;98231.41;;;29.58;38.46
21433;BME280;18592;49.708;10.900;2022-09-09T11:02:00;98234.16;;;29.55;37.85
21433;BME280;18592;49.708;10.900;2022-09-09T11:04:22;98229.72;;;29.50;37.30
21433;BME280;18592;49.708;10.900;2022-09-09T11:06:31;98226.06;;;29.46;38.37
21433;BME280;18592;49.708;10.900;2022-09-09T11:08:39;98222.84;;;29.44;38.72
21433;BME280;18592;49.708;10.900;2022-09-09T11:13:03;98225.66;;;29.48;38.79
21433;BME280;18592;49.708;10.900;2022-09-09T11:15:19;98226.53;;;29.52;37.74
21433;BME280;18592;49.708;10.900;2022-09-09T11:17:26;98231.03;;;29.60;38.15
21433;BME280;18592;49.708;10.900;2022-09-09T11:19:35;98213.88;;;29.69;38.90
21433;BME280;18592;49.708;10.900;2022-09-09T11:21:43;98218.88;;;29.82;38.81
21433;BME280;18592;49.708;10.900;2022-09-09T11:23:54;98219.41;;;29.95;38.54
21433;BME280;18592;49.708;10.900;2022-09-09T11:26:04;98217.50;;;30.09;38.15
21433;BME280;18592;49.708;10.900;2022-09-09T11:28:28;98210.78;;;30.21;37.92
21433;BME280;18592;49.708;10.900;2022-09-09T11:33:26;98206.88;;;30.33;36.68
21433;BME280;18592;49.708;10.900;2022-09-09T11:40:24;98200.38;;;30.25;37.48
21433;BME280;18592;49.708;10.900;2022-09-09T11:42:27;98220.03;;;30.22;37.46
21433;BME280;18592;49.708;10.900;2022-09-09T11:44:30;98209.94;;;30.17;37.34
21433;BME280;18592;49.708;10.900;2022-09-09T11:46:35;98213.13;;;30.12;37.79
21433;BME280;18592;49.708;10.900;2022-09-09T11:48:44;98209.50;;;30.11;37.77
21433;BME280;18592;49.708;10.900;2022-09-09T11:53:20;98210.31;;;30.12;37.45
21433;BME280;18592;49.708;10.900;2022-09-09T11:55:33;98207.91;;;30.14;37.34
21433;BME280;18592;49.708;10.900;2022-09-09T11:57:36;98200.28;;;30.14;38.03
21433;BME280;18592;49.708;10.900;2022-09-09T11:59:38;98195.84;;;30.13;37.80
21433;BME280;18592;49.708;10.900;2022-09-09T12:01:42;98200.28;;;30.14;38.37
21433;BME280;18592;49.708;10.900;2022-09-09T12:03:49;98199.50;;;30.17;38.00
21433;BME280;18592;49.708;10.900;2022-09-09T12:05:53;98194.72;;;30.22;37.82
21433;BME280;18592;49.708;10.900;2022-09-09T12:07:57;98195.56;;;30.29;37.40
21433;BME280;18592;49.708;10.900;2022-09-09T12:10:05;98203.72;;;30.38;37.27
21433;BME280;18592;49.708;10.900;2022-09-09T12:12:26;98209.41;;;30.45;36.78
21433;BME280;18592;49.708;10.900;2022-09-09T12:16:44;98206.19;;;30.46;36.33
21433;BME280;18592;49.708;10.900;2022-09-09T12:18:47;98214.22;;;30.44;36.49
21433;BME280;18592;49.708;10.900;2022-09-09T12:21:14;98225.47;;;30.41;36.49
21433;BME280;18592;49.708;10.900;2022-09-09T12:28:03;98243.66;;;30.13;35.66
21433;BME280;18592;49.708;10.900;2022-09-09T12:30:14;98236.38;;;30.05;35.94
21433;BME280;18592;49.708;10.900;2022-09-09T12:32:27;98233.06;;;29.96;36.10